sensor_id;sensor_type;location;lat;lon;timestamp;P1;durP1;ratioP1;P2;durP2;ratioP2
61785;SDS011;47692;53.714;11.372;2023-12-20T00:01:15;8.30;;;1.33;;
61785;SDS011;47692;53.714;11.372;2023-12-20T00:03:40;5.07;;;1.15;;
61785;SDS011;47692;53.714;11.372;2023-12-20T00:06:06;2.38;;;0.65;;
61785;SDS011;47692;53.714;11.372;2023-12-20T00:08:31;6.15;;;1.10;;
61785;SDS011;47692;53.714;11.372;2023-12-20T00:10:56;7.45;;;1.00;;
61785;SDS011;47692;53.714;11.372;2023-12-20T00:13:22;5.85;;;1.00;;
61785;SDS011;47692;53.714;11.372;2023-12-20T00:15:47;4.30;;;0.90;;
61785;SDS011;47692;53.714;11.372;2023-12-20T00:18:12;6.07;;;1.30;;
61785;SDS011;47692;53.714;11.372;2023-12-20T00:20:37;6.15;;;1.25;;
61785;SDS011;47692;53.714;11.372;2023-12-20T00:23:03;8.27;;;1.10;;
61785;SDS011;47692;53.714;11.372;2023-12-20T00:25:28;3.47;;;1.40;;
61785;SDS011;47692;53.714;11.372;2023-12-20T00:27:54;5.45;;;0.98;;
61785;SDS011;47692;53.714;11.372;2023-12-20T00:30:19;10.73;;;1.38;;
61785;SDS011;47692;53.714;11.372;2023-12-20T00:32:44;4.40;;;1.00;;
61785;SDS011;47692;53.714;11.372;2023-12-20T00:35:15;7.25;;;1.27;;
61785;SDS011;47692;53.714;11.372;2023-12-20T00:37:41;2.95;;;0.68;;
61785;SDS011;47692;53.714;11.372;2023-12-20T00:40:07;6.40;;;1.45;;
61785;SDS011;47692;53.714;11.372;2023-12-20T00:42:33;7.07;;;2.30;;
61785;SDS011;47692;53.714;11.372;2023-12-20T00:44:59;10.48;;;1.63;;
61785;SDS011;47692;53.714;11.372;2023-12-20T00:47:25;14.75;;;1.98;;
61785;SDS011;47692;53.714;11.372;2023-12-20T00:49:50;7.88;;;1.90;;
61785;SDS011;47692;53.714;11.372;2023-12-20T00:52:16;7.18;;;1.58;;
61785;SDS011;47692;53.714;11.372;2023-12-20T00:54:42;6.88;;;1.75;;
61785;SDS011;47692;53.714;11.372;2023-12-20T00:57:08;4.70;;;1.80;;
61785;SDS011;47692;53.714;11.372;2023-12-20T00:59:33;9.20;;;1.75;;
61785;SDS011;47692;53.714;11.372;2023-12-20T01:01:59;8.23;;;1.65;;
61785;SDS011;47692;53.714;11.372;2023-12-20T01:04:24;11.60;;;1.77;;
61785;SDS011;47692;53.714;11.372;2023-12-20T01:06:49;11.13;;;1.42;;
61785;SDS011;47692;53.714;11.372;2023-12-20T01:09:15;6.30;;;1.50;;
61785;SDS011;47692;53.714;11.372;2023-12-20T01:11:40;11.48;;;2.10;;
61785;SDS011;47692;53.714;11.372;2023-12-20T01:14:05;13.15;;;1.73;;
61785;SDS011;47692;53.714;11.372;2023-12-20T01:16:31;7.68;;;1.58;;
61785;SDS011;47692;53.714;11.372;2023-12-20T01:18:56;12.98;;;1.40;;
61785;SDS011;47692;53.714;11.372;2023-12-20T01:21:21;11.93;;;1.95;;
61785;SDS011;47692;53.714;11.372;2023-12-20T01:23:46;7.15;;;1.45;;
61785;SDS011;47692;53.714;11.372;2023-12-20T01:26:12;12.88;;;1.83;;
61785;SDS011;47692;53.714;11.372;2023-12-20T01:28:37;8.32;;;1.20;;
61785;SDS011;47692;53.714;11.372;2023-12-20T01:31:03;8.90;;;1.20;;
61785;SDS011;47692;53.714;11.372;2023-12-20T01:33:28;6.72;;;1.65;;
61785;SDS011;47692;53.714;11.372;2023-12-20T01:35:54;6.65;;;1.42;;
61785;SDS011;47692;53.714;11.372;2023-12-20T01:38:19;7.35;;;1.50;;
61785;SDS011;47692;53.714;11.372;2023-12-20T01:40:45;13.48;;;1.70;;
61785;SDS011;47692;53.714;11.372;2023-12-20T01:43:10;10.07;;;1.20;;
61785;SDS011;47692;53.714;11.372;2023-12-20T01:45:37;15.45;;;1.92;;
61785;SDS011;47692;53.714;11.372;2023-12-20T01:48:03;8.32;;;1.15;;
61785;SDS011;47692;53.714;11.372;2023-12-20T01:50:30;7.22;;;1.67;;
61785;SDS011;47692;53.714;11.372;2023-12-20T01:52:56;7.60;;;1.38;;
61785;SDS011;47692;53.714;11.372;2023-12-20T01:55:25;11.88;;;1.30;;
61785;SDS011;47692;53.714;11.372;2023-12-20T01:57:52;7.80;;;1.30;;
61785;SDS011;47692;53.714;11.372;2023-12-20T02:00:18;9.38;;;1.30;;
61785;SDS011;47692;53.714;11.372;2023-12-20T02:02:48;8.10;;;1.38;;
61785;SDS011;47692;53.714;11.372;2023-12-20T02:05:14;12.60;;;1.60;;
61785;SDS011;47692;53.714;11.372;2023-12-20T02:07:41;8.35;;;1.60;;
61785;SDS011;47692;53.714;11.372;2023-12-20T02:10:06;10.32;;;1.40;;
61785;SDS011;47692;53.714;11.372;2023-12-20T02:12:32;10.20;;;1.30;;
61785;SDS011;47692;53.714;11.372;2023-12-20T02:14:58;18.20;;;1.58;;
61785;SDS011;47692;53.714;11.372;2023-12-20T02:17:23;7.85;;;1.50;;
61785;SDS011;47692;53.714;11.372;2023-12-20T02:19:49;8.05;;;1.40;;
61785;SDS011;47692;53.714;11.372;2023-12-20T02:22:15;7.70;;;1.58;;
61785;SDS011;47692;53.714;11.372;2023-12-20T02:24:40;8.95;;;1.58;;
61785;SDS011;47692;53.714;11.372;2023-12-20T02:27:06;9.57;;;1.90;;
61785;SDS011;47692;53.714;11.372;2023-12-20T02:29:35;10.00;;;1.35;;
61785;SDS011;47692;53.714;11.372;2023-12-20T02:32:01;12.82;;;2.20;;
61785;SDS011;47692;53.714;11.372;2023-12-20T02:34:27;7.93;;;1.50;;
61785;SDS011;47692;53.714;11.372;2023-12-20T02:36:53;11.55;;;2.05;;
61785;SDS011;47692;53.714;11.372;2023-12-20T02:39:18;5.80;;;1.60;;
61785;SDS011;47692;53.714;11.372;2023-12-20T02:41:44;13.43;;;2.00;;
61785;SDS011;47692;53.714;11.372;2023-12-20T02:44:10;15.18;;;3.13;;
61785;SDS011;47692;53.714;11.372;2023-12-20T02:46:35;17.08;;;2.67;;
61785;SDS011;47692;53.714;11.372;2023-12-20T02:49:00;12.88;;;2.28;;
61785;SDS011;47692;53.714;11.372;2023-12-20T02:51:26;13.00;;;2.10;;
61785;SDS011;47692;53.714;11.372;2023-12-20T02:53:51;7.45;;;1.90;;
61785;SDS011;47692;53.714;11.372;2023-12-20T02:56:16;8.32;;;1.60;;
61785;SDS011;47692;53.714;11.372;2023-12-20T02:58:42;9.20;;;2.30;;
61785;SDS011;47692;53.714;11.372;2023-12-20T03:01:07;9.75;;;2.17;;
61785;SDS011;47692;53.714;11.372;2023-12-20T03:03:32;8.10;;;1.90;;
61785;SDS011;47692;53.714;11.372;2023-12-20T03:05:58;9.68;;;1.45;;
61785;SDS011;47692;53.714;11.372;2023-12-20T03:08:23;6.00;;;1.52;;
61785;SDS011;47692;53.714;11.372;2023-12-20T03:10:48;8.80;;;1.77;;
61785;SDS011;47692;53.714;11.372;2023-12-20T03:13:14;12.15;;;1.83;;
61785;SDS011;47692;53.714;11.372;2023-12-20T03:15:39;6.70;;;1.20;;
61785;SDS011;47692;53.714;11.372;2023-12-20T03:18:05;11.60;;;1.95;;
61785;SDS011;47692;53.714;11.372;2023-12-20T03:20:30;11.93;;;1.92;;
61785;SDS011;47692;53.714;11.372;2023-12-20T03:22:59;9.50;;;1.88;;
61785;SDS011;47692;53.714;11.372;2023-12-20T03:25:26;10.70;;;2.17;;
61785;SDS011;47692;53.714;11.372;2023-12-20T03:27:52;10.30;;;1.88;;
61785;SDS011;47692;53.714;11.372;2023-12-20T03:30:17;13.25;;;2.20;;
61785;SDS011;47692;53.714;11.372;2023-12-20T03:32:43;5.50;;;1.35;;
61785;SDS011;47692;53.714;11.372;2023-12-20T03:35:09;7.32;;;1.80;;
61785;SDS011;47692;53.714;11.372;2023-12-20T03:37:35;11.85;;;1.92;;
61785;SDS011;47692;53.714;11.372;2023-12-20T03:40:01;11.48;;;2.28;;
61785;SDS011;47692;53.714;11.372;2023-12-20T03:42:26;8.82;;;2.53;;
61785;SDS011;47692;53.714;11.372;2023-12-20T03:44:51;9.93;;;2.47;;
61785;SDS011;47692;53.714;11.372;2023-12-20T03:47:17;9.73;;;2.20;;
61785;SDS011;47692;53.714;11.372;2023-12-20T03:49:42;11.00;;;2.40;;
61785;SDS011;47692;53.714;11.372;2023-12-20T03:52:07;12.90;;;2.38;;
61785;SDS011;47692;53.714;11.372;2023-12-20T03:54:33;15.00;;;2.80;;
61785;SDS011;47692;53.714;11.372;2023-12-20T03:57:00;18.40;;;3.50;;
61785;SDS011;47692;53.714;11.372;2023-12-20T03:59:25;6.25;;;2.92;;
61785;SDS011;47692;53.714;11.372;2023-12-20T04:01:50;14.98;;;2.65;;
61785;SDS011;47692;53.714;11.372;2023-12-20T04:04:16;6.65;;;2.65;;
61785;SDS011;47692;53.714;11.372;2023-12-20T04:06:41;6.43;;;2.20;;
61785;SDS011;47692;53.714;11.372;2023-12-20T04:09:07;10.93;;;2.35;;
61785;SDS011;47692;53.714;11.372;2023-12-20T04:11:34;5.53;;;2.28;;
61785;SDS011;47692;53.714;11.372;2023-12-20T04:13:59;10.32;;;2.42;;
61785;SDS011;47692;53.714;11.372;2023-12-20T04:16:25;15.65;;;3.38;;
61785;SDS011;47692;53.714;11.372;2023-12-20T04:18:51;7.95;;;3.28;;
61785;SDS011;47692;53.714;11.372;2023-12-20T04:21:16;11.05;;;2.83;;
61785;SDS011;47692;53.714;11.372;2023-12-20T04:23:42;10.55;;;2.97;;
61785;SDS011;47692;53.714;11.372;2023-12-20T04:26:07;10.30;;;2.65;;
61785;SDS011;47692;53.714;11.372;2023-12-20T04:28:32;9.30;;;2.63;;
61785;SDS011;47692;53.714;11.372;2023-12-20T04:30:57;11.65;;;3.05;;
61785;SDS011;47692;53.714;11.372;2023-12-20T04:33:23;11.60;;;3.38;;
61785;SDS011;47692;53.714;11.372;2023-12-20T04:35:48;10.48;;;2.80;;
61785;SDS011;47692;53.714;11.372;2023-12-20T04:38:13;8.63;;;3.00;;
61785;SDS011;47692;53.714;11.372;2023-12-20T04:40:39;5.18;;;2.60;;
61785;SDS011;47692;53.714;11.372;2023-12-20T04:43:06;10.30;;;3.72;;
61785;SDS011;47692;53.714;11.372;2023-12-20T04:45:31;12.13;;;2.70;;
61785;SDS011;47692;53.714;11.372;2023-12-20T04:47:57;13.00;;;2.80;;
61785;SDS011;47692;53.714;11.372;2023-12-20T04:50:22;12.00;;;3.10;;
61785;SDS011;47692;53.714;11.372;2023-12-20T04:52:48;10.45;;;3.30;;
61785;SDS011;47692;53.714;11.372;2023-12-20T04:55:13;7.15;;;2.65;;
61785;SDS011;47692;53.714;11.372;2023-12-20T04:57:39;18.13;;;3.60;;
61785;SDS011;47692;53.714;11.372;2023-12-20T05:00:04;10.80;;;3.70;;
61785;SDS011;47692;53.714;11.372;2023-12-20T05:02:30;13.30;;;3.17;;
61785;SDS011;47692;53.714;11.372;2023-12-20T05:04:55;9.70;;;3.33;;
61785;SDS011;47692;53.714;11.372;2023-12-20T05:07:21;7.75;;;2.70;;
61785;SDS011;47692;53.714;11.372;2023-12-20T05:09:46;8.20;;;2.60;;
61785;SDS011;47692;53.714;11.372;2023-12-20T05:12:12;12.93;;;2.92;;
61785;SDS011;47692;53.714;11.372;2023-12-20T05:14:37;9.25;;;3.38;;
61785;SDS011;47692;53.714;11.372;2023-12-20T05:17:03;11.63;;;3.20;;
61785;SDS011;47692;53.714;11.372;2023-12-20T05:19:28;5.88;;;2.58;;
61785;SDS011;47692;53.714;11.372;2023-12-20T05:21:54;10.15;;;2.72;;
61785;SDS011;47692;53.714;11.372;2023-12-20T05:24:19;12.90;;;3.00;;
61785;SDS011;47692;53.714;11.372;2023-12-20T05:26:44;10.90;;;2.63;;
61785;SDS011;47692;53.714;11.372;2023-12-20T05:29:10;10.05;;;2.53;;
61785;SDS011;47692;53.714;11.372;2023-12-20T05:31:35;5.57;;;2.67;;
61785;SDS011;47692;53.714;11.372;2023-12-20T05:34:01;9.10;;;2.70;;
61785;SDS011;47692;53.714;11.372;2023-12-20T05:36:26;8.32;;;3.20;;
61785;SDS011;47692;53.714;11.372;2023-12-20T05:38:51;7.30;;;2.45;;
61785;SDS011;47692;53.714;11.372;2023-12-20T05:41:16;17.25;;;3.33;;
61785;SDS011;47692;53.714;11.372;2023-12-20T05:43:42;10.10;;;2.70;;
61785;SDS011;47692;53.714;11.372;2023-12-20T05:46:09;9.30;;;2.65;;
61785;SDS011;47692;53.714;11.372;2023-12-20T05:48:35;11.80;;;2.58;;
61785;SDS011;47692;53.714;11.372;2023-12-20T05:51:01;9.63;;;2.50;;
61785;SDS011;47692;53.714;11.372;2023-12-20T05:53:26;8.70;;;2.58;;
61785;SDS011;47692;53.714;11.372;2023-12-20T05:55:51;5.82;;;2.40;;
61785;SDS011;47692;53.714;11.372;2023-12-20T05:58:16;14.98;;;3.40;;
61785;SDS011;47692;53.714;11.372;2023-12-20T06:00:42;9.27;;;2.60;;
61785;SDS011;47692;53.714;11.372;2023-12-20T06:03:07;12.50;;;3.15;;
61785;SDS011;47692;53.714;11.372;2023-12-20T06:05:33;10.85;;;2.78;;
61785;SDS011;47692;53.714;11.372;2023-12-20T06:07:58;12.63;;;3.40;;
61785;SDS011;47692;53.714;11.372;2023-12-20T06:10:27;12.45;;;4.57;;
61785;SDS011;47692;53.714;11.372;2023-12-20T06:12:53;13.68;;;3.30;;
61785;SDS011;47692;53.714;11.372;2023-12-20T06:15:18;11.57;;;3.67;;
61785;SDS011;47692;53.714;11.372;2023-12-20T06:17:43;18.77;;;4.38;;
61785;SDS011;47692;53.714;11.372;2023-12-20T06:20:09;10.90;;;3.50;;
61785;SDS011;47692;53.714;11.372;2023-12-20T06:22:35;14.60;;;3.95;;
61785;SDS011;47692;53.714;11.372;2023-12-20T06:25:01;14.27;;;4.07;;
61785;SDS011;47692;53.714;11.372;2023-12-20T06:27:27;10.23;;;3.95;;
61785;SDS011;47692;53.714;11.372;2023-12-20T06:29:52;10.90;;;3.65;;
61785;SDS011;47692;53.714;11.372;2023-12-20T06:32:18;13.13;;;4.05;;
61785;SDS011;47692;53.714;11.372;2023-12-20T06:34:43;14.77;;;4.13;;
61785;SDS011;47692;53.714;11.372;2023-12-20T06:37:08;9.10;;;4.65;;
61785;SDS011;47692;53.714;11.372;2023-12-20T06:39:34;14.35;;;4.05;;
61785;SDS011;47692;53.714;11.372;2023-12-20T06:41:59;15.18;;;4.63;;
61785;SDS011;47692;53.714;11.372;2023-12-20T06:44:25;9.60;;;3.47;;
61785;SDS011;47692;53.714;11.372;2023-12-20T06:46:50;12.60;;;4.40;;
61785;SDS011;47692;53.714;11.372;2023-12-20T06:49:16;14.02;;;3.88;;
61785;SDS011;47692;53.714;11.372;2023-12-20T06:51:41;17.20;;;4.40;;
61785;SDS011;47692;53.714;11.372;2023-12-20T06:54:06;14.57;;;3.55;;
61785;SDS011;47692;53.714;11.372;2023-12-20T06:56:32;9.45;;;3.15;;
61785;SDS011;47692;53.714;11.372;2023-12-20T06:58:57;10.48;;;3.88;;
61785;SDS011;47692;53.714;11.372;2023-12-20T07:01:22;10.52;;;3.60;;
61785;SDS011;47692;53.714;11.372;2023-12-20T07:03:48;11.93;;;3.42;;
61785;SDS011;47692;53.714;11.372;2023-12-20T07:06:13;9.88;;;3.95;;
61785;SDS011;47692;53.714;11.372;2023-12-20T07:08:41;8.07;;;3.17;;
61785;SDS011;47692;53.714;11.372;2023-12-20T07:11:06;8.77;;;3.15;;
61785;SDS011;47692;53.714;11.372;2023-12-20T07:13:32;7.70;;;3.40;;
61785;SDS011;47692;53.714;11.372;2023-12-20T07:15:57;12.23;;;3.75;;
61785;SDS011;47692;53.714;11.372;2023-12-20T07:18:22;8.20;;;2.90;;
61785;SDS011;47692;53.714;11.372;2023-12-20T07:20:48;11.02;;;3.35;;
61785;SDS011;47692;53.714;11.372;2023-12-20T07:23:13;10.60;;;3.90;;
61785;SDS011;47692;53.714;11.372;2023-12-20T07:25:38;8.90;;;3.10;;
61785;SDS011;47692;53.714;11.372;2023-12-20T07:28:04;13.65;;;3.33;;
61785;SDS011;47692;53.714;11.372;2023-12-20T07:30:30;14.00;;;3.35;;
61785;SDS011;47692;53.714;11.372;2023-12-20T07:32:55;12.38;;;3.45;;
61785;SDS011;47692;53.714;11.372;2023-12-20T07:35:21;12.75;;;3.80;;
61785;SDS011;47692;53.714;11.372;2023-12-20T07:37:48;15.30;;;4.28;;
61785;SDS011;47692;53.714;11.372;2023-12-20T07:40:13;10.88;;;3.55;;
61785;SDS011;47692;53.714;11.372;2023-12-20T07:42:38;13.20;;;4.20;;
61785;SDS011;47692;53.714;11.372;2023-12-20T07:45:04;10.75;;;3.85;;
61785;SDS011;47692;53.714;11.372;2023-12-20T07:47:29;9.77;;;3.90;;
61785;SDS011;47692;53.714;11.372;2023-12-20T07:49:55;12.70;;;3.75;;
61785;SDS011;47692;53.714;11.372;2023-12-20T07:52:20;8.25;;;3.13;;
61785;SDS011;47692;53.714;11.372;2023-12-20T07:54:47;17.52;;;4.03;;
61785;SDS011;47692;53.714;11.372;2023-12-20T07:57:13;8.82;;;3.60;;
61785;SDS011;47692;53.714;11.372;2023-12-20T07:59:38;10.15;;;3.28;;
61785;SDS011;47692;53.714;11.372;2023-12-20T08:02:03;8.57;;;3.00;;
61785;SDS011;47692;53.714;11.372;2023-12-20T08:04:29;12.82;;;3.45;;
61785;SDS011;47692;53.714;11.372;2023-12-20T08:06:54;11.60;;;2.70;;
61785;SDS011;47692;53.714;11.372;2023-12-20T08:09:20;9.57;;;3.38;;
61785;SDS011;47692;53.714;11.372;2023-12-20T08:11:45;13.10;;;3.72;;
61785;SDS011;47692;53.714;11.372;2023-12-20T08:14:15;14.88;;;3.25;;
61785;SDS011;47692;53.714;11.372;2023-12-20T08:16:40;12.27;;;3.00;;
61785;SDS011;47692;53.714;11.372;2023-12-20T08:19:05;13.30;;;3.15;;
61785;SDS011;47692;53.714;11.372;2023-12-20T08:21:31;13.82;;;3.60;;
61785;SDS011;47692;53.714;11.372;2023-12-20T08:23:56;9.35;;;2.70;;
61785;SDS011;47692;53.714;11.372;2023-12-20T08:26:22;10.13;;;2.97;;
61785;SDS011;47692;53.714;11.372;2023-12-20T08:28:49;9.30;;;2.60;;
61785;SDS011;47692;53.714;11.372;2023-12-20T08:31:15;9.88;;;2.88;;
61785;SDS011;47692;53.714;11.372;2023-12-20T08:33:41;12.23;;;3.42;;
61785;SDS011;47692;53.714;11.372;2023-12-20T08:36:08;8.45;;;2.20;;
61785;SDS011;47692;53.714;11.372;2023-12-20T08:38:34;7.13;;;2.95;;
61785;SDS011;47692;53.714;11.372;2023-12-20T08:40:59;13.35;;;3.10;;
61785;SDS011;47692;53.714;11.372;2023-12-20T08:43:24;11.73;;;3.65;;
61785;SDS011;47692;53.714;11.372;2023-12-20T08:45:50;13.85;;;2.80;;
61785;SDS011;47692;53.714;11.372;2023-12-20T08:48:15;14.02;;;3.08;;
61785;SDS011;47692;53.714;11.372;2023-12-20T08:50:40;12.32;;;2.70;;
61785;SDS011;47692;53.714;11.372;2023-12-20T08:53:06;12.70;;;3.45;;
61785;SDS011;47692;53.714;11.372;2023-12-20T08:55:31;10.10;;;2.75;;
61785;SDS011;47692;53.714;11.372;2023-12-20T08:57:57;12.80;;;3.63;;
61785;SDS011;47692;53.714;11.372;2023-12-20T09:00:23;14.13;;;3.40;;
61785;SDS011;47692;53.714;11.372;2023-12-20T09:02:52;13.13;;;2.90;;
61785;SDS011;47692;53.714;11.372;2023-12-20T09:05:17;12.48;;;3.60;;
61785;SDS011;47692;53.714;11.372;2023-12-20T09:07:43;12.65;;;3.72;;
61785;SDS011;47692;53.714;11.372;2023-12-20T09:10:08;8.05;;;2.53;;
61785;SDS011;47692;53.714;11.372;2023-12-20T09:12:34;14.07;;;3.33;;
61785;SDS011;47692;53.714;11.372;2023-12-20T09:14:59;18.50;;;3.72;;
61785;SDS011;47692;53.714;11.372;2023-12-20T09:17:27;10.02;;;2.80;;
61785;SDS011;47692;53.714;11.372;2023-12-20T09:19:53;12.50;;;4.00;;
61785;SDS011;47692;53.714;11.372;2023-12-20T09:22:19;12.98;;;3.30;;
61785;SDS011;47692;53.714;11.372;2023-12-20T09:24:44;16.75;;;3.25;;
61785;SDS011;47692;53.714;11.372;2023-12-20T09:27:10;15.07;;;3.08;;
61785;SDS011;47692;53.714;11.372;2023-12-20T09:29:35;11.90;;;3.20;;
61785;SDS011;47692;53.714;11.372;2023-12-20T09:32:00;13.85;;;3.60;;
61785;SDS011;47692;53.714;11.372;2023-12-20T09:34:26;14.70;;;3.15;;
61785;SDS011;47692;53.714;11.372;2023-12-20T09:36:52;13.85;;;3.38;;
61785;SDS011;47692;53.714;11.372;2023-12-20T09:39:18;11.48;;;2.58;;
61785;SDS011;47692;53.714;11.372;2023-12-20T09:41:45;11.75;;;3.42;;
61785;SDS011;47692;53.714;11.372;2023-12-20T09:44:24;10.65;;;2.90;;
61785;SDS011;47692;53.714;11.372;2023-12-20T09:46:50;12.13;;;2.80;;
61785;SDS011;47692;53.714;11.372;2023-12-20T09:49:18;12.07;;;3.15;;
61785;SDS011;47692;53.714;11.372;2023-12-20T09:51:44;11.60;;;3.50;;
61785;SDS011;47692;53.714;11.372;2023-12-20T09:54:11;10.20;;;2.75;;
61785;SDS011;47692;53.714;11.372;2023-12-20T09:56:40;16.75;;;3.10;;
61785;SDS011;47692;53.714;11.372;2023-12-20T09:59:05;15.68;;;2.83;;
61785;SDS011;47692;53.714;11.372;2023-12-20T10:01:31;10.45;;;2.90;;
61785;SDS011;47692;53.714;11.372;2023-12-20T10:03:57;11.70;;;2.70;;
61785;SDS011;47692;53.714;11.372;2023-12-20T10:06:25;14.88;;;3.35;;
61785;SDS011;47692;53.714;11.372;2023-12-20T10:08:50;9.18;;;3.00;;
61785;SDS011;47692;53.714;11.372;2023-12-20T10:11:16;8.05;;;2.60;;
61785;SDS011;47692;53.714;11.372;2023-12-20T10:13:42;7.93;;;2.30;;
61785;SDS011;47692;53.714;11.372;2023-12-20T10:16:07;10.93;;;2.38;;
61785;SDS011;47692;53.714;11.372;2023-12-20T10:18:33;7.38;;;2.20;;
61785;SDS011;47692;53.714;11.372;2023-12-20T10:20:59;9.38;;;2.40;;
61785;SDS011;47692;53.714;11.372;2023-12-20T10:23:25;8.57;;;2.72;;
61785;SDS011;47692;53.714;11.372;2023-12-20T10:26:00;10.95;;;2.03;;
61785;SDS011;47692;53.714;11.372;2023-12-20T10:28:26;7.65;;;2.45;;
61785;SDS011;47692;53.714;11.372;2023-12-20T10:30:54;6.47;;;2.33;;
61785;SDS011;47692;53.714;11.372;2023-12-20T10:33:26;8.77;;;1.92;;
61785;SDS011;47692;53.714;11.372;2023-12-20T10:35:53;5.18;;;1.52;;
61785;SDS011;47692;53.714;11.372;2023-12-20T10:38:20;4.35;;;1.40;;
61785;SDS011;47692;53.714;11.372;2023-12-20T10:40:46;6.00;;;1.70;;
61785;SDS011;47692;53.714;11.372;2023-12-20T10:43:11;5.30;;;1.30;;
61785;SDS011;47692;53.714;11.372;2023-12-20T10:45:37;5.25;;;1.30;;
61785;SDS011;47692;53.714;11.372;2023-12-20T10:48:03;6.57;;;1.65;;
61785;SDS011;47692;53.714;11.372;2023-12-20T10:50:29;3.22;;;1.50;;
61785;SDS011;47692;53.714;11.372;2023-12-20T10:52:56;5.15;;;1.27;;
61785;SDS011;47692;53.714;11.372;2023-12-20T10:55:23;3.47;;;1.10;;
61785;SDS011;47692;53.714;11.372;2023-12-20T10:57:49;6.35;;;1.13;;
61785;SDS011;47692;53.714;11.372;2023-12-20T11:00:17;1.75;;;0.70;;
61785;SDS011;47692;53.714;11.372;2023-12-20T11:02:43;4.72;;;1.13;;
61785;SDS011;47692;53.714;11.372;2023-12-20T11:05:16;3.17;;;0.50;;
61785;SDS011;47692;53.714;11.372;2023-12-20T11:07:55;1.98;;;0.70;;
61785;SDS011;47692;53.714;11.372;2023-12-20T11:10:35;5.82;;;0.75;;
61785;SDS011;47692;53.714;11.372;2023-12-20T11:13:22;4.65;;;0.70;;
61785;SDS011;47692;53.714;11.372;2023-12-20T11:15:51;3.67;;;0.60;;
61785;SDS011;47692;53.714;11.372;2023-12-20T11:18:17;2.95;;;0.65;;
61785;SDS011;47692;53.714;11.372;2023-12-20T11:20:43;2.53;;;0.70;;
61785;SDS011;47692;53.714;11.372;2023-12-20T11:23:08;1.05;;;0.60;;
61785;SDS011;47692;53.714;11.372;2023-12-20T11:25:53;3.42;;;0.73;;
61785;SDS011;47692;53.714;11.372;2023-12-20T11:28:24;5.85;;;0.75;;
61785;SDS011;47692;53.714;11.372;2023-12-20T11:30:51;3.70;;;0.75;;
61785;SDS011;47692;53.714;11.372;2023-12-20T11:33:20;6.60;;;0.73;;
61785;SDS011;47692;53.714;11.372;2023-12-20T11:35:47;1.65;;;0.40;;
61785;SDS011;47692;53.714;11.372;2023-12-20T11:38:13;6.65;;;0.75;;
61785;SDS011;47692;53.714;11.372;2023-12-20T11:40:40;1.83;;;0.50;;
61785;SDS011;47692;53.714;11.372;2023-12-20T11:43:06;3.67;;;0.50;;
61785;SDS011;47692;53.714;11.372;2023-12-20T11:45:32;6.70;;;0.68;;
61785;SDS011;47692;53.714;11.372;2023-12-20T11:48:00;7.43;;;0.65;;
61785;SDS011;47692;53.714;11.372;2023-12-20T11:50:27;4.35;;;0.60;;
61785;SDS011;47692;53.714;11.372;2023-12-20T11:52:53;5.85;;;0.70;;
61785;SDS011;47692;53.714;11.372;2023-12-20T11:55:20;3.58;;;0.60;;
61785;SDS011;47692;53.714;11.372;2023-12-20T11:57:46;5.72;;;0.68;;
61785;SDS011;47692;53.714;11.372;2023-12-20T12:00:12;5.07;;;0.95;;
61785;SDS011;47692;53.714;11.372;2023-12-20T12:02:38;2.38;;;0.73;;
61785;SDS011;47692;53.714;11.372;2023-12-20T12:05:04;4.97;;;0.57;;
61785;SDS011;47692;53.714;11.372;2023-12-20T12:07:30;2.05;;;0.35;;
61785;SDS011;47692;53.714;11.372;2023-12-20T12:09:56;2.10;;;0.32;;
61785;SDS011;47692;53.714;11.372;2023-12-20T12:12:22;1.80;;;0.38;;
61785;SDS011;47692;53.714;11.372;2023-12-20T12:14:48;3.72;;;0.47;;
61785;SDS011;47692;53.714;11.372;2023-12-20T12:17:14;2.85;;;0.50;;
61785;SDS011;47692;53.714;11.372;2023-12-20T12:19:40;2.20;;;0.57;;
61785;SDS011;47692;53.714;11.372;2023-12-20T12:22:13;1.17;;;0.50;;
61785;SDS011;47692;53.714;11.372;2023-12-20T12:24:40;1.02;;;0.60;;
61785;SDS011;47692;53.714;11.372;2023-12-20T12:27:07;1.13;;;0.50;;
61785;SDS011;47692;53.714;11.372;2023-12-20T12:29:33;2.75;;;0.60;;
61785;SDS011;47692;53.714;11.372;2023-12-20T12:31:59;4.10;;;0.52;;
61785;SDS011;47692;53.714;11.372;2023-12-20T12:34:24;2.50;;;0.70;;
61785;SDS011;47692;53.714;11.372;2023-12-20T12:36:52;6.72;;;0.82;;
61785;SDS011;47692;53.714;11.372;2023-12-20T12:39:17;1.88;;;0.43;;
61785;SDS011;47692;53.714;11.372;2023-12-20T12:41:43;1.90;;;0.30;;
61785;SDS011;47692;53.714;11.372;2023-12-20T12:44:08;2.67;;;0.50;;
61785;SDS011;47692;53.714;11.372;2023-12-20T12:46:34;7.45;;;0.95;;
61785;SDS011;47692;53.714;11.372;2023-12-20T12:48:59;6.35;;;1.70;;
61785;SDS011;47692;53.714;11.372;2023-12-20T12:51:25;5.65;;;0.82;;
61785;SDS011;47692;53.714;11.372;2023-12-20T12:53:50;3.55;;;0.55;;
61785;SDS011;47692;53.714;11.372;2023-12-20T12:56:15;3.25;;;0.70;;
61785;SDS011;47692;53.714;11.372;2023-12-20T12:58:41;4.97;;;0.90;;
61785;SDS011;47692;53.714;11.372;2023-12-20T13:01:07;6.13;;;0.88;;
61785;SDS011;47692;53.714;11.372;2023-12-20T13:03:32;8.27;;;2.20;;
61785;SDS011;47692;53.714;11.372;2023-12-20T13:05:59;6.68;;;0.88;;
61785;SDS011;47692;53.714;11.372;2023-12-20T13:08:24;5.28;;;1.15;;
61785;SDS011;47692;53.714;11.372;2023-12-20T13:10:50;7.35;;;1.83;;
61785;SDS011;47692;53.714;11.372;2023-12-20T13:13:15;6.13;;;0.80;;
61785;SDS011;47692;53.714;11.372;2023-12-20T13:15:41;8.32;;;1.23;;
61785;SDS011;47692;53.714;11.372;2023-12-20T13:18:06;8.52;;;0.95;;
61785;SDS011;47692;53.714;11.372;2023-12-20T13:20:32;6.55;;;1.10;;
61785;SDS011;47692;53.714;11.372;2023-12-20T13:22:58;6.95;;;0.93;;
61785;SDS011;47692;53.714;11.372;2023-12-20T13:25:23;7.88;;;1.30;;
61785;SDS011;47692;53.714;11.372;2023-12-20T13:27:49;6.97;;;0.95;;
61785;SDS011;47692;53.714;11.372;2023-12-20T13:30:15;6.68;;;1.20;;
61785;SDS011;47692;53.714;11.372;2023-12-20T13:32:42;5.28;;;0.75;;
61785;SDS011;47692;53.714;11.372;2023-12-20T13:35:07;8.65;;;1.38;;
61785;SDS011;47692;53.714;11.372;2023-12-20T13:37:33;6.20;;;1.10;;
61785;SDS011;47692;53.714;11.372;2023-12-20T13:39:59;13.13;;;1.90;;
61785;SDS011;47692;53.714;11.372;2023-12-20T13:42:25;12.60;;;1.73;;
61785;SDS011;47692;53.714;11.372;2023-12-20T13:44:52;8.10;;;1.25;;
61785;SDS011;47692;53.714;11.372;2023-12-20T13:47:18;9.00;;;1.75;;
61785;SDS011;47692;53.714;11.372;2023-12-20T13:49:44;8.70;;;2.53;;
61785;SDS011;47692;53.714;11.372;2023-12-20T13:52:10;16.13;;;1.88;;
61785;SDS011;47692;53.714;11.372;2023-12-20T13:54:36;8.20;;;2.00;;
61785;SDS011;47692;53.714;11.372;2023-12-20T13:57:01;6.65;;;1.63;;
61785;SDS011;47692;53.714;11.372;2023-12-20T13:59:28;8.23;;;2.00;;
61785;SDS011;47692;53.714;11.372;2023-12-20T14:01:53;8.25;;;2.13;;
61785;SDS011;47692;53.714;11.372;2023-12-20T14:04:18;7.72;;;1.90;;
61785;SDS011;47692;53.714;11.372;2023-12-20T14:06:46;7.28;;;1.88;;
61785;SDS011;47692;53.714;11.372;2023-12-20T14:09:11;9.60;;;1.67;;
61785;SDS011;47692;53.714;11.372;2023-12-20T14:11:37;14.68;;;2.45;;
61785;SDS011;47692;53.714;11.372;2023-12-20T14:14:06;11.43;;;2.63;;
61785;SDS011;47692;53.714;11.372;2023-12-20T14:16:34;10.57;;;2.03;;
61785;SDS011;47692;53.714;11.372;2023-12-20T14:19:00;10.80;;;2.38;;
61785;SDS011;47692;53.714;11.372;2023-12-20T14:21:25;19.80;;;2.45;;